Time;durP1;ratioP1;P1;durP2;ratioP2;P2;SDS_P1;SDS_P2;PMS_P1;PMS_P2;Temp;Humidity;BMP_temperature;BMP_pressure;BME280_temperature;BME280_humidity;BME280_pressure;Samples;Min_cycle;Max_cycle;Signal;HPM_P1;HPM_P2
2024/04/16 00:00:50;;;;;;;492.92;96.38;;;17.00;46.50;;;;;;5438164;26;20017;-63
2024/04/16 00:03:21;;;;;;;509.85;100.35;;;16.80;46.30;;;;;;5444319;26;20039;-64
2024/04/16 00:05:49;;;;;;;616.88;139.68;;;16.60;46.30;;;;;;5449273;25;20004;-63
2024/04/16 00:08:19;;;;;;;554.65;117.10;;;16.40;46.40;;;;;;5451293;26;20097;-65
2024/04/16 00:10:47;;;;;;;482.23;90.75;;;16.20;46.40;;;;;;5414008;25;20013;-67
2024/04/16 00:13:17;;;;;;;486.40;93.68;;;16.20;46.40;;;;;;5450380;26;20006;-62
2024/04/16 00:16:08;;;;;;;633.25;150.60;;;16.10;46.30;;;;;;5450942;26;19998;-63
2024/04/16 00:18:39;;;;;;;472.75;90.75;;;16.00;46.30;;;;;;5443429;26;20006;-63
2024/04/16 00:21:07;;;;;;;499.98;97.90;;;15.90;46.20;;;;;;5458046;25;19998;-62
2024/04/16 00:23:38;;;;;;;528.05;105.22;;;15.80;46.20;;;;;;5468043;25;19998;-62
2024/04/16 00:26:06;;;;;;;684.15;173.70;;;15.70;46.10;;;;;;5436104;25;20001;-62
2024/04/16 00:28:36;;;;;;;576.05;124.50;;;15.60;46.10;;;;;;5463238;25;19998;-63
2024/04/16 00:31:07;;;;;;;479.50;93.13;;;15.50;46.20;;;;;;5470548;26;20010;-63
2024/04/16 00:33:38;;;;;;;488.33;97.95;;;15.50;46.20;;;;;;5433509;26;20002;-63
2024/04/16 00:36:06;;;;;;;708.33;173.30;;;15.40;46.20;;;;;;5425628;26;20001;-64
2024/04/16 00:38:36;;;;;;;472.90;89.38;;;15.30;46.20;;;;;;5458664;26;20013;-63
2024/04/16 00:41:04;;;;;;;524.53;105.55;;;15.20;46.20;;;;;;5465796;26;20017;-62
2024/04/16 00:43:35;;;;;;;495.02;91.78;;;15.10;46.10;;;;;;5458215;26;20313;-63
2024/04/16 00:46:08;;;;;;;682.08;156.57;;;15.10;46.60;;;;;;5457442;26;20002;-63
2024/04/16 00:48:39;;;;;;;486.88;92.57;;;15.10;46.20;;;;;;5458777;26;20002;-64
2024/04/16 00:51:07;;;;;;;494.23;91.93;;;15.10;46.10;;;;;;5456020;26;20052;-64
2024/04/16 00:53:38;;;;;;;467.95;83.75;;;15.10;46.10;;;;;;5451080;26;19999;-63
2024/04/16 00:56:08;;;;;;;549.72;115.53;;;15.10;46.00;;;;;;5455615;25;20002;-63
2024/04/16 00:58:42;;;;;;;562.17;113.85;;;15.10;45.90;;;;;;5446466;26;20003;-64
2024/04/16 01:01:12;;;;;;;475.15;82.78;;;15.10;45.90;;;;;;5450496;26;20075;-64
2024/04/16 01:03:43;;;;;;;493.80;87.93;;;15.10;45.80;;;;;;5459283;26;19998;-64
2024/04/16 01:06:12;;;;;;;620.05;130.35;;;15.20;45.80;;;;;;5455194;26;20002;-63
2024/04/16 01:08:43;;;;;;;513.92;95.03;;;15.10;45.70;;;;;;5462472;26;20078;-64
2024/04/16 01:11:21;;;;;;;481.42;83.20;;;15.10;45.60;;;;;;5427842;26;20022;-65
2024/04/16 01:13:51;;;;;;;525.28;95.18;;;15.10;45.60;;;;;;5456915;26;20002;-65
2024/04/16 01:16:22;;;;;;;612.35;131.55;;;15.10;45.60;;;;;;5458806;26;20020;-65
2024/04/16 01:18:53;;;;;;;524.95;96.13;;;15.00;45.60;;;;;;5472200;26;20071;-63
2024/04/16 01:21:21;;;;;;;477.70;83.80;;;15.00;45.60;;;;;;5457659;26;19998;-64
2024/04/16 01:23:54;;;;;;;532.83;98.60;;;15.00;45.60;;;;;;5422768;26;20364;-64
2024/04/16 01:26:21;;;;;;;644.28;142.07;;;15.00;45.60;;;;;;5458718;26;19998;-64
2024/04/16 01:28:52;;;;;;;482.85;84.00;;;15.00;45.50;;;;;;5460577;26;20108;-63
2024/04/16 01:31:21;;;;;;;500.40;89.32;;;15.00;45.60;;;;;;5467921;26;20010;-63
2024/04/16 01:33:53;;;;;;;496.63;86.28;;;14.90;45.40;;;;;;5473762;26;20310;-63
2024/04/16 01:36:21;;;;;;;470.80;82.07;;;14.90;45.40;;;;;;5469027;26;20010;-63
2024/04/16 01:38:54;;;;;;;807.35;211.52;;;14.90;45.40;;;;;;5451506;26;20069;-63
2024/04/16 01:41:22;;;;;;;481.92;83.93;;;14.90;45.30;;;;;;5429907;26;19995;-64
2024/04/16 01:43:52;;;;;;;467.77;80.47;;;14.90;45.30;;;;;;5432298;26;20013;-64
2024/04/16 01:46:20;;;;;;;496.33;89.15;;;14.90;45.30;;;;;;5457650;26;20010;-64
2024/04/16 01:48:51;;;;;;;699.17;152.45;;;14.90;45.30;;;;;;5454197;26;20042;-63
2024/04/16 01:51:20;;;;;;;502.33;88.22;;;14.90;45.60;;;;;;5467506;26;20337;-63
2024/04/16 01:53:53;;;;;;;486.63;85.95;;;15.00;45.30;;;;;;5471930;25;21106;-64
2024/04/16 01:56:21;;;;;;;474.90;84.15;;;15.00;45.30;;;;;;5464580;26;20002;-65
2024/04/16 01:58:52;;;;;;;595.00;123.20;;;15.00;45.20;;;;;;5420952;26;20018;-63
2024/04/16 02:01:19;;;;;;;487.10;84.93;;;15.10;45.20;;;;;;5463088;26;20001;-63
2024/04/16 02:03:50;;;;;;;478.63;83.28;;;15.00;45.00;;;;;;5467410;26;20012;-64
2024/04/16 02:06:18;;;;;;;521.42;100.15;;;15.00;45.00;;;;;;5466353;25;19998;-63
2024/04/16 02:08:48;;;;;;;477.83;82.88;;;15.00;45.00;;;;;;5446882;26;20035;-65
2024/04/16 02:11:19;;;;;;;523.70;105.25;;;15.10;45.00;;;;;;5457828;25;20014;-64
2024/04/16 02:13:49;;;;;;;493.92;86.93;;;15.10;45.00;;;;;;5466541;25;20017;-64
2024/04/16 02:16:17;;;;;;;479.73;83.30;;;15.10;44.90;;;;;;5457651;26;20025;-65
2024/04/16 02:18:48;;;;;;;474.92;81.35;;;15.00;44.90;;;;;;5466561;26;19997;-64
2024/04/16 02:21:15;;;;;;;655.25;155.38;;;15.00;44.90;;;;;;5454525;26;20052;-64
2024/04/16 02:23:47;;;;;;;470.33;81.28;;;15.00;44.90;;;;;;5459449;26;19994;-63
2024/04/16 02:26:15;;;;;;;489.77;86.43;;;15.00;44.90;;;;;;5469886;26;20028;-64
2024/04/16 02:28:48;;;;;;;544.88;102.38;;;15.00;44.80;;;;;;5463563;26;20090;-64
2024/04/16 02:31:16;;;;;;;584.58;118.28;;;15.00;44.80;;;;;;5427377;26;20014;-65
2024/04/16 02:33:46;;;;;;;481.15;83.00;;;14.90;44.70;;;;;;5459402;26;20021;-64
2024/04/16 02:36:14;;;;;;;481.02;83.88;;;14.90;44.70;;;;;;5464838;25;20063;-69
2024/04/16 02:38:45;;;;;;;462.83;78.70;;;14.90;44.60;;;;;;5462631;26;20501;-65
2024/04/16 02:41:13;;;;;;;486.60;84.45;;;14.90;44.70;;;;;;5462842;26;20459;-64
2024/04/16 02:47:11;;;;;;;486.88;85.93;;;14.80;44.70;;;;;;5480111;26;20074;-65
2024/04/16 02:49:39;;;;;;;483.20;85.05;;;14.80;45.30;;;;;;5444851;26;20014;-63
2024/04/16 02:52:09;;;;;;;679.40;162.27;;;14.80;44.70;;;;;;5454206;26;20002;-63
2024/04/16 02:54:37;;;;;;;522.95;96.45;;;14.70;44.70;;;;;;5465913;26;20033;-65
2024/04/16 02:57:07;;;;;;;474.30;82.10;;;14.70;44.70;;;;;;5462820;26;20012;-64
2024/04/16 02:59:35;;;;;;;467.38;81.30;;;14.70;44.70;;;;;;5466562;26;19998;-63
2024/04/16 03:02:11;;;;;;;480.40;83.55;;;14.70;44.70;;;;;;5453209;26;20013;-64
2024/04/16 03:04:39;;;;;;;691.47;159.75;;;14.70;44.70;;;;;;5454882;26;19998;-62
2024/04/16 03:07:10;;;;;;;482.15;86.50;;;14.60;44.60;;;;;;5455789;26;20078;-64
2024/04/16 03:09:38;;;;;;;556.60;105.78;;;14.60;44.70;;;;;;5474313;25;20456;-62
2024/04/16 03:12:09;;;;;;;492.50;85.88;;;14.50;44.60;;;;;;5463397;25;20038;-65
2024/04/16 03:14:37;;;;;;;633.65;137.55;;;14.50;44.70;;;;;;5473261;25;20009;-63
2024/04/16 03:17:07;;;;;;;507.95;89.78;;;14.40;44.70;;;;;;5472441;26;20001;-63
2024/04/16 03:19:38;;;;;;;478.77;82.72;;;14.30;44.70;;;;;;5458392;26;20108;-64
2024/04/16 03:22:09;;;;;;;480.40;81.93;;;14.10;44.80;;;;;;5466425;26;20016;-64
2024/04/16 03:24:37;;;;;;;489.88;85.47;;;14.00;44.90;;;;;;5481118;25;20766;-63
2024/04/16 03:27:07;;;;;;;551.92;110.95;;;13.90;45.00;;;;;;5471418;25;20542;-63
2024/04/16 03:29:35;;;;;;;589.50;117.90;;;13.80;45.10;;;;;;5461601;26;20118;-64
2024/04/16 03:32:06;;;;;;;465.95;79.47;;;13.80;45.80;;;;;;5483888;25;20008;-64
2024/04/16 03:34:37;;;;;;;520.50;93.60;;;13.80;45.30;;;;;;5465660;26;20002;-64
2024/04/16 03:37:08;;;;;;;650.33;151.40;;;13.80;45.30;;;;;;5453938;26;20017;-65
2024/04/16 03:39:38;;;;;;;529.22;92.13;;;13.70;45.20;;;;;;5457052;26;20006;-64
2024/04/16 03:42:09;;;;;;;471.92;80.20;;;13.70;45.20;;;;;;5464759;26;20003;-64
2024/04/16 03:44:36;;;;;;;480.50;82.85;;;13.70;45.30;;;;;;5479853;26;20042;-64
2024/04/16 03:47:07;;;;;;;658.80;148.55;;;13.70;45.60;;;;;;5466628;25;20012;-63
2024/04/16 03:49:37;;;;;;;485.13;83.18;;;13.70;45.30;;;;;;5467631;26;19998;-63
2024/04/16 03:52:08;;;;;;;505.52;87.75;;;13.70;45.30;;;;;;5470239;26;20024;-64
2024/04/16 03:54:36;;;;;;;472.45;79.82;;;13.60;45.20;;;;;;5464149;26;19998;-63
2024/04/16 03:57:07;;;;;;;468.98;78.45;;;13.50;45.30;;;;;;5468171;26;20796;-64
2024/04/16 04:00:59;;;;;;;479.90;84.78;;;13.50;45.30;;;;;;5475040;26;20449;-65
2024/04/16 04:02:28;;;;;;;484.60;93.40;;;13.50;45.40;;;;;;5471977;25;20017;-64
2024/04/16 04:05:01;;;;;;;551.38;102.70;;;13.40;45.30;;;;;;5452066;26;20021;-63
2024/04/16 04:07:29;;;;;;;492.35;84.75;;;13.40;45.40;;;;;;5462547;25;20026;-63
2024/04/16 04:10:00;;;;;;;500.70;86.03;;;13.40;45.50;;;;;;5462708;26;20002;-63
2024/04/16 04:12:31;;;;;;;493.25;88.82;;;13.30;45.50;;;;;;5462321;25;20019;-64
2024/04/16 04:14:58;;;;;;;504.67;100.68;;;13.40;45.60;;;;;;5467353;26;20444;-63
2024/04/16 04:17:29;;;;;;;469.88;78.85;;;13.40;45.60;;;;;;5464627;26;20071;-63
2024/04/16 04:20:01;;;;;;;520.97;91.82;;;13.40;45.60;;;;;;5463476;26;20048;-64
2024/04/16 04:22:31;;;;;;;495.25;85.93;;;13.30;45.60;;;;;;5440986;26;20113;-64
2024/04/16 04:25:00;;;;;;;546.95;103.05;;;13.30;45.60;;;;;;5458193;26;20002;-64
2024/04/16 04:27:31;;;;;;;695.15;181.82;;;13.20;45.70;;;;;;5425068;26;20037;-64
2024/04/16 04:29:59;;;;;;;490.92;112.38;;;13.20;45.70;;;;;;5465793;25;20328;-63
2024/04/16 04:32:30;;;;;;;478.17;109.15;;;13.10;46.40;;;;;;5469778;26;20002;-66
2024/04/16 04:35:01;;;;;;;591.53;142.77;;;13.10;45.80;;;;;;5461357;25;19998;-65
2024/04/16 04:37:31;;;;;;;493.38;84.28;;;13.00;45.90;;;;;;5464919;26;19998;-62
2024/04/16 04:39:59;;;;;;;721.53;178.43;;;13.00;46.00;;;;;;5462290;26;20917;-63
2024/04/16 04:42:30;;;;;;;476.98;84.25;;;12.90;46.00;;;;;;5468617;26;20005;-64
2024/04/16 04:44:58;;;;;;;528.50;95.55;;;12.90;46.00;;;;;;5457839;26;20011;-64
2024/04/16 04:47:29;;;;;;;506.65;90.10;;;12.90;46.00;;;;;;5435126;26;20006;-64
2024/04/16 04:50:00;;;;;;;498.27;94.55;;;12.80;46.00;;;;;;5428606;26;20006;-64
2024/04/16 04:52:30;;;;;;;680.45;156.07;;;12.80;46.10;;;;;;5442676;26;20067;-65
2024/04/16 04:55:01;;;;;;;494.52;84.57;;;12.80;46.10;;;;;;5467372;26;20025;-63
2024/04/16 04:57:32;;;;;;;500.67;86.60;;;12.80;46.10;;;;;;5463052;26;20012;-65
2024/04/16 05:00:00;;;;;;;554.67;101.63;;;12.80;46.10;;;;;;5449400;26;20018;-64
2024/04/16 05:02:31;;;;;;;488.42;85.22;;;12.80;46.20;;;;;;5451478;25;20085;-64
2024/04/16 05:05:03;;;;;;;510.92;95.13;;;12.80;46.00;;;;;;5459014;25;21628;-63
2024/04/16 05:07:34;;;;;;;576.28;110.47;;;12.80;46.00;;;;;;5458247;25;20429;-63
2024/04/16 05:10:03;;;;;;;500.55;88.95;;;12.80;45.90;;;;;;5456201;26;20817;-64
2024/04/16 05:12:34;;;;;;;521.10;137.93;;;12.90;45.90;;;;;;5418824;26;19999;-67
2024/04/16 05:15:02;;;;;;;635.75;166.57;;;12.90;45.90;;;;;;5450357;26;20010;-64
2024/04/16 05:17:34;;;;;;;551.70;153.20;;;12.90;45.80;;;;;;5456340;25;20043;-66
2024/04/16 05:20:06;;;;;;;581.65;155.45;;;13.00;45.80;;;;;;5453332;26;20440;-67
2024/04/16 05:22:36;;;;;;;533.13;120.60;;;13.00;45.70;;;;;;5454078;26;20081;-66
2024/04/16 05:25:05;;;;;;;500.65;85.95;;;13.10;45.70;;;;;;5422683;26;20034;-66
2024/04/16 05:27:37;;;;;;;546.13;114.32;;;13.10;45.70;;;;;;5455645;25;20020;-68
2024/04/16 05:30:08;;;;;;;729.97;171.30;;;13.10;45.70;;;;;;5455433;26;20021;-67
2024/04/16 05:32:38;;;;;;;494.42;84.60;;;13.10;45.60;;;;;;5450993;26;20432;-65
2024/04/16 05:35:09;;;;;;;531.75;93.60;;;13.20;45.70;;;;;;5453009;26;20013;-65
2024/04/16 05:37:40;;;;;;;505.90;98.65;;;13.20;45.60;;;;;;5458516;26;20002;-66
2024/04/16 05:40:08;;;;;;;591.60;115.25;;;13.20;45.60;;;;;;5429171;26;20037;-64
2024/04/16 05:42:40;;;;;;;701.13;165.50;;;13.30;45.60;;;;;;5441881;26;20438;-65
2024/04/16 05:45:09;;;;;;;487.48;83.93;;;13.50;45.70;;;;;;5453278;25;20012;-65
2024/04/16 05:47:40;;;;;;;521.38;91.70;;;13.60;45.50;;;;;;5450329;26;20026;-64
2024/04/16 05:50:11;;;;;;;531.05;100.05;;;13.60;45.40;;;;;;5452674;26;20115;-65
2024/04/16 05:52:42;;;;;;;711.03;170.95;;;13.70;45.40;;;;;;5445499;26;20074;-65
2024/04/16 05:55:10;;;;;;;498.23;85.47;;;13.80;45.30;;;;;;5454755;26;20002;-66
2024/04/16 05:57:41;;;;;;;540.33;99.53;;;13.90;45.30;;;;;;5460745;26;20433;-66
2024/04/16 06:00:09;;;;;;;509.75;90.57;;;13.90;45.30;;;;;;5417635;26;20348;-64
2024/04/16 06:02:40;;;;;;;662.45;150.52;;;14.00;45.30;;;;;;5452883;26;20059;-66
2024/04/16 06:05:11;;;;;;;489.48;86.10;;;14.00;45.20;;;;;;5457470;26;20002;-64
2024/04/16 06:07:41;;;;;;;510.35;88.30;;;14.10;45.20;;;;;;5462311;26;20009;-65
2024/04/16 06:10:09;;;;;;;490.48;85.88;;;14.10;45.10;;;;;;5457640;26;20459;-66
2024/04/16 06:12:40;;;;;;;675.13;157.30;;;14.20;45.10;;;;;;5425039;26;20006;-66
2024/04/16 06:15:08;;;;;;;553.95;102.75;;;14.20;45.10;;;;;;5461813;26;19998;-66
2024/04/16 06:17:40;;;;;;;494.08;88.95;;;14.20;45.00;;;;;;5463998;26;19998;-66
2024/04/16 06:20:10;;;;;;;518.67;92.55;;;14.30;45.00;;;;;;5460236;26;20070;-68
2024/04/16 06:22:42;;;;;;;673.17;166.75;;;14.30;45.00;;;;;;5443363;26;20003;-64
2024/04/16 06:25:12;;;;;;;491.38;84.13;;;14.40;45.00;;;;;;5448027;26;20014;-65
2024/04/16 06:27:40;;;;;;;517.22;91.53;;;14.40;45.00;;;;;;5465368;25;19998;-67
2024/04/16 06:30:11;;;;;;;497.13;87.75;;;14.50;45.00;;;;;;5426433;26;20021;-68
2024/04/16 06:32:39;;;;;;;660.75;157.32;;;14.50;44.90;;;;;;5445367;25;19999;-63
2024/04/16 06:35:13;;;;;;;481.05;85.07;;;14.60;45.00;;;;;;5466901;26;20010;-67
2024/04/16 06:37:41;;;;;;;478.55;82.47;;;14.60;44.90;;;;;;5454860;26;20083;-65
2024/04/16 06:40:11;;;;;;;536.42;99.95;;;14.80;45.00;;;;;;5432503;26;20022;-66
2024/04/16 06:42:39;;;;;;;660.28;156.95;;;15.00;45.00;;;;;;5457018;25;19994;-66
2024/04/16 06:45:10;;;;;;;555.55;105.28;;;15.20;44.90;;;;;;5424914;26;20009;-66
2024/04/16 06:47:38;;;;;;;510.15;92.68;;;15.40;44.70;;;;;;5422609;26;20100;-65
2024/04/16 06:50:09;;;;;;;511.30;95.53;;;15.60;44.70;;;;;;5428542;26;20460;-65
2024/04/16 06:52:40;;;;;;;711.35;181.88;;;15.80;44.70;;;;;;5459390;26;20008;-65
2024/04/16 06:55:11;;;;;;;499.77;91.05;;;15.90;44.60;;;;;;5450617;26;20008;-66
2024/04/16 06:57:39;;;;;;;558.70;106.78;;;16.10;44.40;;;;;;5431343;26;20035;-65
2024/04/16 07:00:11;;;;;;;572.20;112.57;;;16.10;44.00;;;;;;5468510;26;20039;-64
2024/04/16 07:02:39;;;;;;;692.50;173.40;;;16.10;44.00;;;;;;5453999;26;20017;-68
2024/04/16 07:05:09;;;;;;;491.15;88.18;;;16.20;44.20;;;;;;5458951;26;20006;-64
2024/04/16 07:07:40;;;;;;;505.77;92.88;;;16.30;44.20;;;;;;5461674;26;20013;-68
2024/04/16 07:10:11;;;;;;;530.60;102.05;;;16.40;44.00;;;;;;5464324;26;19998;-64
2024/04/16 07:12:39;;;;;;;710.78;176.50;;;16.40;43.90;;;;;;5450435;26;20002;-64
2024/04/16 07:15:10;;;;;;;553.40;105.68;;;16.40;43.90;;;;;;5433761;26;20034;-64
2024/04/16 07:17:38;;;;;;;505.40;93.35;;;16.30;43.70;;;;;;5431428;26;20435;-66
2024/04/16 07:20:09;;;;;;;512.85;102.25;;;16.30;43.70;;;;;;5423792;26;19998;-66
2024/04/16 07:22:40;;;;;;;707.97;172.85;;;16.30;43.70;;;;;;5447571;26;20014;-61
2024/04/16 07:25:11;;;;;;;483.75;90.05;;;16.20;43.70;;;;;;5425359;26;20002;-64
2024/04/16 07:27:39;;;;;;;483.48;95.03;;;16.20;43.70;;;;;;5448476;26;20019;-66
2024/04/16 07:30:10;;;;;;;520.70;104.40;;;16.30;43.80;;;;;;5458487;25;20071;-66
2024/04/16 07:32:38;;;;;;;564.67;115.22;;;16.30;43.70;;;;;;5455898;26;19998;-64
2024/04/16 07:35:09;;;;;;;510.88;93.55;;;16.30;43.70;;;;;;5463100;26;20053;-65
2024/04/16 07:37:40;;;;;;;495.02;91.40;;;16.40;43.80;;;;;;5472898;26;20357;-66
2024/04/16 07:40:11;;;;;;;520.08;97.72;;;16.40;43.50;;;;;;5426971;26;19998;-63
2024/04/16 07:42:39;;;;;;;497.60;91.35;;;16.50;43.60;;;;;;5472164;26;20002;-62
2024/04/16 07:45:11;;;;;;;505.48;95.57;;;16.50;43.60;;;;;;5466993;26;19998;-63
2024/04/16 07:47:39;;;;;;;513.20;119.15;;;16.60;43.50;;;;;;5472010;26;19998;-63
2024/04/16 07:50:10;;;;;;;527.10;102.07;;;16.70;43.50;;;;;;5453228;26;20002;-64
2024/04/16 07:52:40;;;;;;;515.80;102.60;;;16.80;43.50;;;;;;5462388;26;20352;-67
2024/04/16 07:55:11;;;;;;;502.63;94.68;;;17.20;43.80;;;;;;5458276;26;20002;-63
2024/04/16 07:57:39;;;;;;;508.83;99.65;;;17.70;43.90;;;;;;5469081;26;20002;-64
2024/04/16 08:00:11;;;;;;;537.70;124.57;;;18.40;43.50;;;;;;5456990;26;20019;-63
2024/04/16 08:02:42;;;;;;;509.75;104.05;;;19.40;44.10;;;;;;5453791;25;19998;-64
2024/04/16 08:05:10;;;;;;;501.45;104.60;;;20.60;43.30;;;;;;5418608;26;20012;-67
2024/04/16 08:07:45;;;;;;;519.67;122.63;;;21.70;42.70;;;;;;5424929;26;20002;-66
2024/04/16 08:10:13;;;;;;;531.38;121.25;;;22.90;42.50;;;;;;5451311;26;20002;-64
2024/04/16 08:12:44;;;;;;;511.35;122.15;;;24.00;41.30;;;;;;5457212;26;20021;-64
2024/04/16 08:15:12;;;;;;;583.75;160.82;;;25.40;40.70;;;;;;5456033;26;21338;-61
2024/04/16 08:17:42;;;;;;;515.45;130.82;;;26.60;39.60;;;;;;5460149;25;20020;-63
2024/04/16 08:20:10;;;;;;;527.65;140.27;;;26.80;37.60;;;;;;5434649;26;20002;-63
2024/04/16 08:22:46;;;;;;;534.42;139.90;;;26.90;37.70;;;;;;5467975;26;20013;-63
2024/04/16 08:25:14;;;;;;;557.97;163.15;;;26.30;36.70;;;;;;5456798;26;20002;-63
2024/04/16 08:27:45;;;;;;;527.45;132.73;;;25.40;36.80;;;;;;5463370;26;20523;-63
2024/04/16 08:30:13;;;;;;;545.47;134.55;;;24.60;37.20;;;;;;5474051;26;19998;-64
2024/04/16 08:32:46;;;;;;;523.95;132.25;;;23.60;37.30;;;;;;5468263;26;20385;-63
2024/04/16 08:35:24;;;;;;;635.05;178.93;;;23.40;38.60;;;;;;5451419;26;20635;-65
2024/04/16 08:37:57;;;;;;;534.67;123.45;;;22.90;38.20;;;;;;5470429;26;20074;-66
2024/04/16 08:40:25;;;;;;;536.80;124.72;;;22.20;38.50;;;;;;5458067;26;20302;-64
2024/04/16 08:42:56;;;;;;;535.38;128.75;;;21.70;38.90;;;;;;5469756;26;20362;-63
2024/04/16 08:45:24;;;;;;;545.25;128.43;;;21.70;40.00;;;;;;5462840;26;20464;-63
2024/04/16 08:47:57;;;;;;;523.10;125.30;;;22.40;40.20;;;;;;5470533;26;19994;-63
2024/04/16 08:50:27;;;;;;;495.33;116.07;;;23.10;40.00;;;;;;5471880;26;20002;-62
2024/04/16 08:53:06;;;;;;;516.58;122.13;;;23.60;39.10;;;;;;5431139;26;20020;-62
2024/04/16 08:55:37;;;;;;;525.50;125.50;;;23.40;38.20;;;;;;5457151;26;19998;-63
2024/04/16 08:58:07;;;;;;;513.75;118.03;;;22.90;37.90;;;;;;5458649;25;20013;-63
2024/04/16 09:00:35;;;;;;;508.90;114.20;;;22.20;37.90;;;;;;5463842;25;20013;-62
2024/04/16 09:03:07;;;;;;;538.28;120.55;;;21.50;38.30;;;;;;5464359;26;20005;-63
2024/04/16 09:05:35;;;;;;;511.52;111.80;;;20.90;38.70;;;;;;5449889;26;21700;-63
2024/04/16 09:08:09;;;;;;;585.67;132.32;;;20.40;39.00;;;;;;5460954;26;20013;-63
2024/04/16 09:10:37;;;;;;;509.42;108.30;;;20.00;39.40;;;;;;5457634;26;19999;-64
2024/04/16 09:13:14;;;;;;;548.72;120.70;;;19.70;39.90;;;;;;5457548;26;20002;-63
2024/04/16 09:15:42;;;;;;;671.88;180.80;;;19.80;40.40;;;;;;5458619;26;20322;-63
2024/04/16 09:18:13;;;;;;;518.63;108.28;;;19.90;40.30;;;;;;5464008;26;20038;-62
2024/04/16 09:20:48;;;;;;;510.45;109.53;;;20.00;40.10;;;;;;5468597;26;20006;-64
2024/04/16 09:23:19;;;;;;;508.92;107.90;;;20.10;40.10;;;;;;5461490;26;19999;-63
2024/04/16 09:25:49;;;;;;;700.67;184.20;;;20.10;39.80;;;;;;5451458;26;20056;-64
2024/04/16 09:28:19;;;;;;;539.75;112.95;;;19.90;39.70;;;;;;5462499;26;20002;-63
2024/04/16 09:30:57;;;;;;;496.65;102.28;;;19.80;39.80;;;;;;5426353;26;20505;-64
2024/04/16 09:33:30;;;;;;;544.00;119.13;;;19.60;39.70;;;;;;5462755;25;20002;-64
2024/04/16 09:36:15;;;;;;;508.50;118.13;;;19.30;39.70;;;;;;5458497;25;19997;-63
2024/04/16 09:38:46;;;;;;;517.67;112.93;;;19.10;40.00;;;;;;5467547;25;20030;-64
2024/04/16 09:41:17;;;;;;;527.33;106.68;;;18.80;40.00;;;;;;5469929;26;20410;-62
2024/04/16 09:43:47;;;;;;;629.90;140.75;;;18.60;40.10;;;;;;5407493;25;20014;-62
2024/04/16 09:46:20;;;;;;;517.13;105.50;;;18.40;40.30;;;;;;5459690;26;20441;-62
2024/04/16 09:48:48;;;;;;;504.25;104.90;;;18.40;40.70;;;;;;5464723;26;20002;-64
2024/04/16 09:51:23;;;;;;;514.90;107.72;;;18.80;41.00;;;;;;5449835;26;20003;-65
2024/04/16 09:53:55;;;;;;;661.38;162.80;;;19.20;41.00;;;;;;5464926;25;20124;-68
2024/04/16 09:56:28;;;;;;;510.08;107.60;;;19.60;40.50;;;;;;5467593;26;20006;-64
2024/04/16 09:58:58;;;;;;;540.85;118.10;;;19.80;40.30;;;;;;5454619;26;20003;-62
2024/04/16 10:01:31;;;;;;;507.23;110.43;;;20.00;40.00;;;;;;5463947;25;20074;-64
2024/04/16 10:04:02;;;;;;;743.65;207.90;;;20.00;39.90;;;;;;5446239;26;20021;-64
2024/04/16 10:06:31;;;;;;;519.30;110.25;;;20.20;40.00;;;;;;5463869;26;20017;-63
2024/04/16 10:09:04;;;;;;;507.92;112.43;;;20.50;40.10;;;;;;5467406;26;20012;-62
2024/04/16 10:11:33;;;;;;;515.65;118.95;;;20.90;40.00;;;;;;5458656;25;20008;-62
2024/04/16 10:14:06;;;;;;;511.88;117.45;;;21.20;39.60;;;;;;5425004;26;20016;-62
2024/04/16 10:16:35;;;;;;;515.63;114.72;;;21.50;39.20;;;;;;5466635;25;19998;-61
2024/04/16 10:19:08;;;;;;;504.85;113.78;;;21.60;38.70;;;;;;5457114;26;20011;-64
2024/04/16 10:21:40;;;;;;;546.10;122.50;;;21.50;38.50;;;;;;5413933;26;20221;-62
2024/04/16 10:24:14;;;;;;;513.15;112.47;;;21.40;38.60;;;;;;5458656;26;20010;-63
2024/04/16 10:26:56;;;;;;;752.05;239.00;;;21.40;38.90;;;;;;5439995;26;20014;-62
2024/04/16 10:29:32;;;;;;;525.00;120.35;;;21.90;39.50;;;;;;5454244;26;20089;-62
2024/04/16 10:32:01;;;;;;;530.53;121.10;;;22.20;38.50;;;;;;5462403;26;20010;-65
2024/04/16 10:34:34;;;;;;;539.80;128.85;;;22.30;38.20;;;;;;5458895;26;20014;-67
2024/04/16 10:37:03;;;;;;;710.97;203.23;;;22.50;38.20;;;;;;5447337;26;20035;-63
2024/04/16 10:39:36;;;;;;;585.42;185.70;;;22.50;38.10;;;;;;5467023;26;20134;-62
2024/04/16 10:42:04;;;;;;;550.05;192.18;;;22.80;38.60;;;;;;5417522;26;19995;-63
2024/04/16 10:44:37;;;;;;;564.33;212.23;;;23.10;38.00;;;;;;5428464;26;20011;-62
2024/04/16 10:47:06;;;;;;;548.95;172.77;;;23.10;37.60;;;;;;5425617;26;19999;-63
2024/04/16 10:49:36;;;;;;;622.78;184.35;;;22.90;37.30;;;;;;5415920;26;20654;-62
2024/04/16 10:52:11;;;;;;;581.90;162.25;;;22.50;37.10;;;;;;5431592;26;19999;-63
2024/04/16 10:54:47;;;;;;;534.30;152.45;;;22.20;37.20;;;;;;5458381;26;19994;-66
2024/04/16 10:57:16;;;;;;;514.58;131.00;;;21.80;37.20;;;;;;5435963;26;20010;-64
2024/04/16 10:59:48;;;;;;;519.50;129.05;;;21.50;37.50;;;;;;5428576;26;20000;-62
2024/04/16 11:02:32;;;;;;;518.05;136.90;;;21.30;37.70;;;;;;5429081;26;20018;-63
2024/04/16 11:05:03;;;;;;;546.55;134.77;;;21.30;37.90;;;;;;5426287;26;20018;-65
2024/04/16 11:07:33;;;;;;;514.85;120.97;;;21.10;37.90;;;;;;5415668;26;19999;-64
2024/04/16 11:10:08;;;;;;;519.65;118.30;;;21.10;38.10;;;;;;5415646;26;20018;-62
2024/04/16 11:12:36;;;;;;;526.75;125.28;;;21.10;38.10;;;;;;5424786;26;20003;-66
2024/04/16 11:15:09;;;;;;;550.08;123.60;;;21.30;38.20;;;;;;5421207;26;20007;-62
2024/04/16 11:17:38;;;;;;;556.78;146.10;;;21.40;38.00;;;;;;5409264;26;20014;-64
2024/04/16 11:20:11;;;;;;;563.80;208.40;;;21.50;37.80;;;;;;5426938;26;20007;-62
2024/04/16 11:22:39;;;;;;;633.13;196.77;;;21.60;37.70;;;;;;5401444;26;20291;-64
2024/04/16 11:25:22;;;;;;;528.17;119.25;;;21.60;37.40;;;;;;5424276;26;20127;-63
2024/04/16 11:27:50;;;;;;;546.00;135.77;;;21.50;37.40;;;;;;5411740;25;20076;-62
2024/04/16 11:30:21;;;;;;;564.60;170.02;;;21.30;37.30;;;;;;5419298;26;20018;-64
2024/04/16 11:32:49;;;;;;;724.22;229.02;;;21.30;37.60;;;;;;5410793;26;20003;-62
2024/04/16 11:35:20;;;;;;;545.25;128.20;;;21.40;37.60;;;;;;5422168;26;20003;-61
2024/04/16 11:37:48;;;;;;;516.95;139.25;;;21.50;37.50;;;;;;5428562;25;20003;-63
2024/04/16 11:40:23;;;;;;;563.03;194.70;;;21.70;37.50;;;;;;5413046;26;20007;-63
2024/04/16 11:42:51;;;;;;;531.28;120.95;;;21.90;37.40;;;;;;5451237;26;20021;-63
2024/04/16 11:45:22;;;;;;;537.33;163.40;;;22.10;36.90;;;;;;5458883;26;20017;-62
2024/04/16 11:47:50;;;;;;;713.13;198.13;;;22.30;36.90;;;;;;5447655;26;20002;-63
2024/04/16 11:50:22;;;;;;;553.97;128.80;;;22.40;36.70;;;;;;5464963;26;20395;-67
2024/04/16 11:52:49;;;;;;;551.75;146.23;;;22.50;36.60;;;;;;5466536;26;20818;-63
2024/04/16 11:55:23;;;;;;;526.28;131.82;;;22.70;37.20;;;;;;5462510;26;20002;-62
2024/04/16 11:57:51;;;;;;;549.30;144.77;;;22.70;36.30;;;;;;5467478;25;20002;-62
2024/04/16 12:00:22;;;;;;;519.40;125.82;;;22.90;36.50;;;;;;5455050;26;20018;-64
2024/04/16 12:02:50;;;;;;;706.22;210.75;;;22.80;36.10;;;;;;5466112;25;19998;-63
2024/04/16 12:05:20;;;;;;;543.58;142.88;;;22.50;36.00;;;;;;5463839;26;19998;-63
2024/04/16 12:07:49;;;;;;;566.72;142.63;;;22.20;36.00;;;;;;5473378;25;20004;-63
2024/04/16 12:10:23;;;;;;;577.05;147.95;;;21.90;36.10;;;;;;5462968;26;20030;-64
2024/04/16 12:12:51;;;;;;;545.70;127.10;;;21.60;36.20;;;;;;5417804;26;20306;-66
2024/04/16 12:15:22;;;;;;;526.08;123.53;;;21.40;36.50;;;;;;5460071;26;20457;-63
2024/04/16 12:17:50;;;;;;;564.65;169.65;;;21.40;36.70;;;;;;5464034;25;20912;-63
2024/04/16 12:20:21;;;;;;;520.58;143.02;;;21.50;37.10;;;;;;5457844;26;20002;-64
2024/04/16 12:22:49;;;;;;;503.88;133.48;;;21.60;36.50;;;;;;5463706;26;20066;-64
2024/04/16 12:25:23;;;;;;;542.25;128.77;;;21.60;36.50;;;;;;5457915;26;20009;-63
2024/04/16 12:27:51;;;;;;;561.95;131.57;;;21.70;36.50;;;;;;5422622;26;20418;-66
2024/04/16 12:30:21;;;;;;;518.47;136.55;;;21.90;36.60;;;;;;5459047;26;20117;-62